PLF038 EPKK-EPKK
Flight info
| Callsign | PLF038 |
|---|---|
| Flight time | 0h 59m |
| Altitude | 2000 |
| Route | DCT |
| Aircraft | C295/M-SDFGIRY/S |
Departure
| Time | 2026-05-06 18:36 |
|---|---|
| Airport | Kraków John Paul II International Airport (EPKK) |
Arrival
| Time | 2026-05-06 19:35 |
|---|---|
| Airport | Kraków John Paul II International Airport (EPKK) |
| Time | Latitude | Longitude | Altitude | Speed | Heading |
|---|---|---|---|---|---|
| 2026-05-06 17:58 | 50.07575 | 19.79252 | 786 ft | 0 kts | 348° |
| 2026-05-06 18:29 | 50.07590 | 19.79247 | 786 ft | 0 kts | 348° |
| 2026-05-06 18:29 | 50.07625 | 19.79262 | 786 ft | 9 kts | 58° |
| 2026-05-06 18:29 | 50.07645 | 19.79386 | 786 ft | 11 kts | 78° |
| 2026-05-06 18:30 | 50.07648 | 19.79404 | 786 ft | 3 kts | 78° |
| 2026-05-06 18:30 | 50.07658 | 19.79481 | 786 ft | 11 kts | 77° |
| 2026-05-06 18:30 | 50.07677 | 19.79613 | 786 ft | 12 kts | 77° |
| 2026-05-06 18:30 | 50.07697 | 19.79755 | 786 ft | 12 kts | 78° |
| 2026-05-06 18:31 | 50.07705 | 19.79810 | 786 ft | 3 kts | 77° |
| 2026-05-06 18:31 | 50.07712 | 19.79864 | 786 ft | 8 kts | 77° |
| 2026-05-06 18:31 | 50.07727 | 19.79970 | 786 ft | 12 kts | 78° |
| 2026-05-06 18:31 | 50.07747 | 19.80114 | 786 ft | 15 kts | 77° |
| 2026-05-06 18:32 | 50.07769 | 19.80271 | 786 ft | 13 kts | 77° |
| 2026-05-06 18:32 | 50.07817 | 19.80344 | 786 ft | 12 kts | 356° |
| 2026-05-06 18:32 | 50.07842 | 19.80337 | 786 ft | 0 kts | 347° |
| 2026-05-06 18:33 | 50.07843 | 19.80336 | 786 ft | 3 kts | 347° |
| 2026-05-06 18:33 | 50.07911 | 19.80312 | 786 ft | 15 kts | 347° |
| 2026-05-06 18:34 | 50.08008 | 19.80274 | 785 ft | 6 kts | 322° |
| 2026-05-06 18:34 | 50.08015 | 19.80215 | 785 ft | 0 kts | 260° |
| 2026-05-06 18:34 | 50.08011 | 19.80181 | 786 ft | 19 kts | 258° |
| 2026-05-06 18:35 | 50.07938 | 19.79654 | 786 ft | 79 kts | 258° |
| 2026-05-06 18:35 | 50.07783 | 19.78563 | 788 ft | 124 kts | 259° |
| 2026-05-06 18:35 | 50.07580 | 19.77122 | 913 ft | 143 kts | 258° |
| 2026-05-06 18:35 | 50.07358 | 19.75515 | 1076 ft | 162 kts | 260° |
| 2026-05-06 18:36 | 50.07145 | 19.73747 | 1433 ft | 168 kts | 270° |
| 2026-05-06 18:36 | 50.07577 | 19.72103 | 1812 ft | 172 kts | 322° |
| 2026-05-06 18:36 | 50.08646 | 19.71581 | 1679 ft | 162 kts | 352° |
| 2026-05-06 18:36 | 50.09692 | 19.71929 | 1698 ft | 167 kts | 39° |
| 2026-05-06 18:37 | 50.10270 | 19.73594 | 1871 ft | 188 kts | 80° |
| 2026-05-06 18:37 | 50.10522 | 19.75714 | 1885 ft | 207 kts | 81° |
| 2026-05-06 18:37 | 50.10754 | 19.77904 | 1811 ft | 194 kts | 80° |
| 2026-05-06 18:37 | 50.10963 | 19.79872 | 1647 ft | 177 kts | 81° |
| 2026-05-06 18:38 | 50.11132 | 19.81685 | 1540 ft | 162 kts | 81° |
| 2026-05-06 18:38 | 50.11397 | 19.83394 | 1511 ft | 169 kts | 64° |
| 2026-05-06 18:38 | 50.12275 | 19.84737 | 1660 ft | 194 kts | 22° |
| 2026-05-06 18:38 | 50.13484 | 19.85533 | 1914 ft | 183 kts | 51° |
| 2026-05-06 18:39 | 50.13702 | 19.87477 | 1674 ft | 197 kts | 110° |
| 2026-05-06 18:39 | 50.12780 | 19.89039 | 1632 ft | 193 kts | 157° |
| 2026-05-06 18:39 | 50.11543 | 19.89462 | 1447 ft | 175 kts | 171° |
| 2026-05-06 18:40 | 50.09457 | 19.88818 | 1485 ft | 163 kts | 228° |
| 2026-05-06 18:40 | 50.08960 | 19.87319 | 1508 ft | 149 kts | 256° |
| 2026-05-06 18:40 | 50.08758 | 19.85802 | 1499 ft | 136 kts | 259° |
| 2026-05-06 18:40 | 50.08572 | 19.84398 | 1370 ft | 130 kts | 258° |
| 2026-05-06 18:41 | 50.08392 | 19.83089 | 1270 ft | 117 kts | 259° |
| 2026-05-06 18:41 | 50.08225 | 19.81884 | 1084 ft | 118 kts | 261° |
| 2026-05-06 18:41 | 50.08050 | 19.80541 | 943 ft | 134 kts | 259° |
| 2026-05-06 18:41 | 50.07854 | 19.79095 | 788 ft | 136 kts | 259° |
| 2026-05-06 18:42 | 50.07664 | 19.77668 | 835 ft | 135 kts | 259° |
| 2026-05-06 18:42 | 50.07467 | 19.76288 | 1137 ft | 130 kts | 260° |
| 2026-05-06 18:42 | 50.07298 | 19.74838 | 1521 ft | 143 kts | 261° |
| 2026-05-06 18:42 | 50.07219 | 19.73222 | 1841 ft | 161 kts | 278° |
| 2026-05-06 18:43 | 50.07917 | 19.71682 | 1846 ft | 192 kts | 328° |
| 2026-05-06 18:43 | 50.09200 | 19.71178 | 1745 ft | 196 kts | 8° |
| 2026-05-06 18:43 | 50.10359 | 19.72315 | 1957 ft | 208 kts | 58° |
| 2026-05-06 18:43 | 50.10770 | 19.74445 | 2040 ft | 197 kts | 79° |
| 2026-05-06 18:44 | 50.11014 | 19.76372 | 1951 ft | 177 kts | 82° |
| 2026-05-06 18:44 | 50.11202 | 19.78260 | 1719 ft | 170 kts | 84° |
| 2026-05-06 18:44 | 50.11373 | 19.80036 | 1603 ft | 171 kts | 81° |
| 2026-05-06 18:44 | 50.11572 | 19.82029 | 1641 ft | 191 kts | 83° |
| 2026-05-06 18:45 | 50.11729 | 19.84079 | 1674 ft | 187 kts | 83° |
| 2026-05-06 18:45 | 50.11931 | 19.86042 | 1691 ft | 183 kts | 81° |
| 2026-05-06 18:45 | 50.12052 | 19.87989 | 1718 ft | 177 kts | 99° |
| 2026-05-06 18:45 | 50.11463 | 19.89560 | 1796 ft | 168 kts | 146° |
| 2026-05-06 18:46 | 50.10345 | 19.90064 | 1751 ft | 166 kts | 175° |
| 2026-05-06 18:46 | 50.09309 | 19.89545 | 1786 ft | 163 kts | 221° |
| 2026-05-06 18:46 | 50.08939 | 19.87956 | 1820 ft | 162 kts | 270° |
| 2026-05-06 18:46 | 50.08851 | 19.86180 | 1640 ft | 163 kts | 258° |
| 2026-05-06 18:47 | 50.08609 | 19.84444 | 1381 ft | 160 kts | 258° |
| 2026-05-06 18:47 | 50.08376 | 19.82855 | 1211 ft | 142 kts | 258° |
| 2026-05-06 18:47 | 50.08184 | 19.81434 | 1119 ft | 128 kts | 261° |
| 2026-05-06 18:47 | 50.07988 | 19.79996 | 866 ft | 149 kts | 259° |
| 2026-05-06 18:48 | 50.07746 | 19.78280 | 883 ft | 180 kts | 258° |
| 2026-05-06 18:48 | 50.07462 | 19.76254 | 1107 ft | 199 kts | 259° |
| 2026-05-06 18:48 | 50.07178 | 19.74097 | 1495 ft | 206 kts | 260° |
| 2026-05-06 18:48 | 50.07235 | 19.71964 | 1887 ft | 195 kts | 287° |
| 2026-05-06 18:49 | 50.08058 | 19.70282 | 1971 ft | 206 kts | 328° |
| 2026-05-06 18:49 | 50.09479 | 19.69876 | 1973 ft | 220 kts | 14° |
| 2026-05-06 18:49 | 50.10632 | 19.71413 | 1833 ft | 229 kts | 70° |
| 2026-05-06 18:49 | 50.10947 | 19.73678 | 1886 ft | 204 kts | 81° |
| 2026-05-06 18:50 | 50.11213 | 19.75779 | 1827 ft | 192 kts | 81° |
| 2026-05-06 18:50 | 50.11430 | 19.77780 | 1819 ft | 182 kts | 82° |
| 2026-05-06 18:50 | 50.11619 | 19.79710 | 1798 ft | 183 kts | 82° |
| 2026-05-06 18:50 | 50.11791 | 19.81622 | 1818 ft | 171 kts | 84° |
| 2026-05-06 18:51 | 50.11962 | 19.83431 | 1756 ft | 169 kts | 81° |
| 2026-05-06 18:51 | 50.12182 | 19.85189 | 1777 ft | 159 kts | 81° |
| 2026-05-06 18:51 | 50.12375 | 19.86862 | 1680 ft | 158 kts | 79° |
| 2026-05-06 18:51 | 50.12588 | 19.88561 | 1672 ft | 161 kts | 81° |
| 2026-05-06 18:52 | 50.13051 | 19.90083 | 1665 ft | 173 kts | 26° |
| 2026-05-06 18:52 | 50.14215 | 19.89428 | 1344 ft | 219 kts | 294° |
| 2026-05-06 18:52 | 50.14123 | 19.87086 | 1494 ft | 212 kts | 258° |
| 2026-05-06 18:52 | 50.13876 | 19.84956 | 1543 ft | 193 kts | 260° |
| 2026-05-06 18:53 | 50.13675 | 19.82926 | 1473 ft | 188 kts | 260° |
| 2026-05-06 18:53 | 50.13448 | 19.80933 | 1387 ft | 184 kts | 259° |
| 2026-05-06 18:53 | 50.13229 | 19.79031 | 1476 ft | 177 kts | 260° |
| 2026-05-06 18:53 | 50.12995 | 19.77121 | 1563 ft | 181 kts | 258° |
| 2026-05-06 18:54 | 50.12741 | 19.75187 | 1646 ft | 185 kts | 257° |
| 2026-05-06 18:54 | 50.12449 | 19.73187 | 1627 ft | 190 kts | 250° |
| 2026-05-06 18:54 | 50.11501 | 19.71901 | 1562 ft | 194 kts | 189° |
| 2026-05-06 18:54 | 50.10273 | 19.72559 | 1433 ft | 203 kts | 128° |
| 2026-05-06 18:55 | 50.10045 | 19.74644 | 1425 ft | 197 kts | 75° |
| 2026-05-06 18:55 | 50.10344 | 19.76658 | 1631 ft | 190 kts | 78° |
| 2026-05-06 18:55 | 50.10643 | 19.78665 | 1709 ft | 192 kts | 78° |
| 2026-05-06 18:55 | 50.10959 | 19.80716 | 1713 ft | 194 kts | 71° |
| 2026-05-06 18:56 | 50.11923 | 19.82136 | 1574 ft | 207 kts | 13° |
| 2026-05-06 18:56 | 50.13327 | 19.81689 | 1427 ft | 215 kts | 322° |
| 2026-05-06 18:56 | 50.13928 | 19.79630 | 1276 ft | 219 kts | 266° |
| 2026-05-06 18:56 | 50.13621 | 19.77443 | 1570 ft | 198 kts | 255° |
| 2026-05-06 18:57 | 50.13315 | 19.75368 | 1609 ft | 197 kts | 257° |
| 2026-05-06 18:57 | 50.13011 | 19.73277 | 1666 ft | 197 kts | 255° |
| 2026-05-06 18:57 | 50.12210 | 19.71684 | 1620 ft | 196 kts | 202° |
| 2026-05-06 18:57 | 50.10866 | 19.71617 | 1606 ft | 197 kts | 160° |
| 2026-05-06 18:58 | 50.09909 | 19.73024 | 1606 ft | 200 kts | 110° |
| 2026-05-06 18:58 | 50.10007 | 19.75189 | 1495 ft | 200 kts | 75° |
| 2026-05-06 18:58 | 50.10292 | 19.77278 | 1566 ft | 196 kts | 79° |
| 2026-05-06 18:58 | 50.10561 | 19.79379 | 1576 ft | 199 kts | 80° |
| 2026-05-06 18:59 | 50.10848 | 19.81509 | 1569 ft | 199 kts | 77° |
| 2026-05-06 18:59 | 50.11603 | 19.83242 | 1494 ft | 205 kts | 31° |
| 2026-05-06 18:59 | 50.13004 | 19.83538 | 1433 ft | 209 kts | 343° |
| 2026-05-06 18:59 | 50.14082 | 19.82155 | 1424 ft | 209 kts | 292° |
| 2026-05-06 19:00 | 50.14074 | 19.79957 | 1377 ft | 201 kts | 254° |
| 2026-05-06 19:00 | 50.13770 | 19.77841 | 1415 ft | 200 kts | 257° |
| 2026-05-06 19:00 | 50.13448 | 19.75756 | 1496 ft | 197 kts | 256° |
| 2026-05-06 19:00 | 50.13243 | 19.74368 | 1500 ft | 200 kts | 256° |
| 2026-05-06 19:01 | 50.12506 | 19.71750 | 1393 ft | 203 kts | 217° |
| 2026-05-06 19:01 | 50.11150 | 19.71358 | 1330 ft | 204 kts | 165° |
| 2026-05-06 19:01 | 50.10074 | 19.72670 | 1331 ft | 204 kts | 114° |
| 2026-05-06 19:01 | 50.10053 | 19.74806 | 1424 ft | 192 kts | 78° |
| 2026-05-06 19:02 | 50.10334 | 19.76791 | 1632 ft | 187 kts | 77° |
| 2026-05-06 19:02 | 50.10654 | 19.78756 | 1710 ft | 189 kts | 77° |
| 2026-05-06 19:02 | 50.10975 | 19.80795 | 1637 ft | 197 kts | 78° |
| 2026-05-06 19:02 | 50.11361 | 19.82863 | 1581 ft | 201 kts | 59° |
| 2026-05-06 19:03 | 50.12538 | 19.84020 | 1376 ft | 213 kts | 3° |
| 2026-05-06 19:03 | 50.13874 | 19.83211 | 1404 ft | 210 kts | 314° |
| 2026-05-06 19:03 | 50.14434 | 19.81168 | 1376 ft | 211 kts | 269° |
| 2026-05-06 19:03 | 50.14164 | 19.79024 | 1626 ft | 190 kts | 254° |
| 2026-05-06 19:04 | 50.13857 | 19.77128 | 1914 ft | 179 kts | 255° |
| 2026-05-06 19:04 | 50.13551 | 19.75195 | 1826 ft | 192 kts | 254° |
| 2026-05-06 19:04 | 50.13210 | 19.73127 | 1743 ft | 201 kts | 253° |
| 2026-05-06 19:04 | 50.12610 | 19.71246 | 1784 ft | 196 kts | 217° |
| 2026-05-06 19:05 | 50.11290 | 19.70863 | 1543 ft | 206 kts | 163° |
| 2026-05-06 19:05 | 50.10156 | 19.72201 | 1420 ft | 212 kts | 121° |
| 2026-05-06 19:05 | 50.09882 | 19.74412 | 1405 ft | 211 kts | 83° |
| 2026-05-06 19:05 | 50.10173 | 19.76586 | 1522 ft | 202 kts | 78° |
| 2026-05-06 19:06 | 50.10463 | 19.78737 | 1578 ft | 202 kts | 81° |
| 2026-05-06 19:06 | 50.10628 | 19.80160 | 1639 ft | 201 kts | 81° |
| 2026-05-06 19:06 | 50.10877 | 19.82285 | 1729 ft | 197 kts | 77° |
| 2026-05-06 19:06 | 50.11665 | 19.83997 | 1578 ft | 208 kts | 28° |
| 2026-05-06 19:07 | 50.13100 | 19.84141 | 1457 ft | 214 kts | 338° |
| 2026-05-06 19:07 | 50.14234 | 19.82760 | 1575 ft | 207 kts | 306° |
| 2026-05-06 19:07 | 50.14719 | 19.80699 | 1567 ft | 205 kts | 272° |
| 2026-05-06 19:07 | 50.14531 | 19.78560 | 1703 ft | 194 kts | 255° |
| 2026-05-06 19:08 | 50.14214 | 19.76483 | 1665 ft | 199 kts | 256° |
| 2026-05-06 19:08 | 50.13925 | 19.74343 | 1641 ft | 203 kts | 257° |
| 2026-05-06 19:08 | 50.13570 | 19.72221 | 1574 ft | 203 kts | 241° |
| 2026-05-06 19:08 | 50.12431 | 19.71008 | 1435 ft | 207 kts | 187° |
| 2026-05-06 19:09 | 50.11070 | 19.71539 | 1449 ft | 204 kts | 143° |
| 2026-05-06 19:09 | 50.10317 | 19.73330 | 1556 ft | 201 kts | 102° |
| 2026-05-06 19:09 | 50.10425 | 19.75433 | 1548 ft | 188 kts | 80° |
| 2026-05-06 19:09 | 50.10707 | 19.77480 | 1764 ft | 198 kts | 78° |
| 2026-05-06 19:10 | 50.11039 | 19.79566 | 1859 ft | 200 kts | 76° |
| 2026-05-06 19:10 | 50.11457 | 19.81623 | 1900 ft | 200 kts | 63° |
| 2026-05-06 19:10 | 50.12592 | 19.82823 | 1735 ft | 214 kts | 2° |
| 2026-05-06 19:10 | 50.13918 | 19.81888 | 1707 ft | 216 kts | 308° |
| 2026-05-06 19:11 | 50.14312 | 19.79732 | 1742 ft | 211 kts | 260° |
| 2026-05-06 19:11 | 50.13971 | 19.77569 | 1845 ft | 203 kts | 254° |
| 2026-05-06 19:11 | 50.13592 | 19.75459 | 1950 ft | 201 kts | 254° |
| 2026-05-06 19:11 | 50.13219 | 19.73324 | 1878 ft | 207 kts | 247° |
| 2026-05-06 19:12 | 50.12261 | 19.71737 | 1714 ft | 213 kts | 200° |
| 2026-05-06 19:12 | 50.10786 | 19.71713 | 1696 ft | 214 kts | 158° |
| 2026-05-06 19:12 | 50.09781 | 19.73332 | 1674 ft | 218 kts | 106° |
| 2026-05-06 19:12 | 50.09920 | 19.75586 | 1761 ft | 207 kts | 74° |
| 2026-05-06 19:13 | 50.10334 | 19.77650 | 2033 ft | 203 kts | 75° |
| 2026-05-06 19:13 | 50.10712 | 19.79780 | 2080 ft | 203 kts | 76° |
| 2026-05-06 19:13 | 50.11116 | 19.81893 | 2181 ft | 200 kts | 66° |
| 2026-05-06 19:13 | 50.12214 | 19.83203 | 2102 ft | 213 kts | 11° |
| 2026-05-06 19:14 | 50.13720 | 19.82878 | 1810 ft | 229 kts | 330° |
| 2026-05-06 19:14 | 50.14699 | 19.80980 | 1650 ft | 230 kts | 285° |
| 2026-05-06 19:14 | 50.14688 | 19.78572 | 1758 ft | 216 kts | 255° |
| 2026-05-06 19:14 | 50.14297 | 19.76335 | 1777 ft | 213 kts | 254° |
| 2026-05-06 19:15 | 50.13916 | 19.74117 | 1812 ft | 212 kts | 253° |
| 2026-05-06 19:15 | 50.13496 | 19.71925 | 1768 ft | 211 kts | 240° |
| 2026-05-06 19:15 | 50.12369 | 19.70517 | 1613 ft | 216 kts | 192° |
| 2026-05-06 19:15 | 50.10944 | 19.70893 | 1632 ft | 214 kts | 146° |
| 2026-05-06 19:16 | 50.10231 | 19.72823 | 1727 ft | 209 kts | 97° |
| 2026-05-06 19:16 | 50.10430 | 19.75014 | 1799 ft | 199 kts | 79° |
| 2026-05-06 19:16 | 50.10648 | 19.77142 | 1826 ft | 201 kts | 81° |
| 2026-05-06 19:16 | 50.10909 | 19.79307 | 1832 ft | 206 kts | 79° |
| 2026-05-06 19:17 | 50.11336 | 19.81442 | 1834 ft | 209 kts | 63° |
| 2026-05-06 19:17 | 50.12417 | 19.82960 | 1677 ft | 220 kts | 21° |
| 2026-05-06 19:17 | 50.13945 | 19.82934 | 1510 ft | 227 kts | 336° |
| 2026-05-06 19:17 | 50.15048 | 19.81318 | 1672 ft | 216 kts | 293° |
| 2026-05-06 19:18 | 50.15191 | 19.79065 | 1728 ft | 206 kts | 259° |
| 2026-05-06 19:18 | 50.14901 | 19.76891 | 1791 ft | 205 kts | 255° |
| 2026-05-06 19:18 | 50.14541 | 19.74762 | 1812 ft | 205 kts | 252° |
| 2026-05-06 19:18 | 50.13998 | 19.72700 | 1857 ft | 203 kts | 233° |
| 2026-05-06 19:19 | 50.12913 | 19.71460 | 1953 ft | 200 kts | 194° |
| 2026-05-06 19:19 | 50.11519 | 19.71714 | 1728 ft | 207 kts | 160° |
| 2026-05-06 19:19 | 50.10242 | 19.72662 | 1772 ft | 202 kts | 135° |
| 2026-05-06 19:19 | 50.09741 | 19.74695 | 1639 ft | 212 kts | 90° |
| 2026-05-06 19:20 | 50.10020 | 19.76936 | 1638 ft | 209 kts | 79° |
| 2026-05-06 19:20 | 50.10354 | 19.79161 | 1604 ft | 212 kts | 78° |
| 2026-05-06 19:20 | 50.10659 | 19.81431 | 1562 ft | 216 kts | 79° |
| 2026-05-06 19:20 | 50.10944 | 19.83667 | 1586 ft | 190 kts | 88° |
| 2026-05-06 19:21 | 50.10604 | 19.85367 | 1685 ft | 155 kts | 132° |
| 2026-05-06 19:21 | 50.09644 | 19.85942 | 1506 ft | 158 kts | 185° |
| 2026-05-06 19:21 | 50.08701 | 19.85217 | 1554 ft | 148 kts | 236° |
| 2026-05-06 19:21 | 50.08493 | 19.83726 | 1454 ft | 142 kts | 261° |
| 2026-05-06 19:22 | 50.08299 | 19.82227 | 1216 ft | 137 kts | 255° |
| 2026-05-06 19:22 | 50.08093 | 19.80829 | 955 ft | 128 kts | 257° |
| 2026-05-06 19:22 | 50.07919 | 19.79543 | 816 ft | 116 kts | 257° |
| 2026-05-06 19:22 | 50.07754 | 19.78358 | 787 ft | 118 kts | 258° |
| 2026-05-06 19:23 | 50.07545 | 19.76971 | 1040 ft | 136 kts | 256° |
| 2026-05-06 19:23 | 50.07350 | 19.75446 | 1348 ft | 158 kts | 259° |
| 2026-05-06 19:23 | 50.07160 | 19.73613 | 1536 ft | 181 kts | 260° |
| 2026-05-06 19:23 | 50.07348 | 19.71680 | 1813 ft | 195 kts | 299° |
| 2026-05-06 19:24 | 50.08436 | 19.70342 | 1801 ft | 209 kts | 343° |
| 2026-05-06 19:24 | 50.09861 | 19.70604 | 1767 ft | 215 kts | 35° |
| 2026-05-06 19:24 | 50.10623 | 19.72520 | 1784 ft | 210 kts | 82° |
| 2026-05-06 19:24 | 50.10819 | 19.74758 | 1860 ft | 210 kts | 83° |
| 2026-05-06 19:25 | 50.11100 | 19.77038 | 1820 ft | 217 kts | 79° |
| 2026-05-06 19:25 | 50.11425 | 19.79390 | 1678 ft | 228 kts | 78° |
| 2026-05-06 19:25 | 50.11781 | 19.81808 | 1607 ft | 229 kts | 77° |
| 2026-05-06 19:25 | 50.12526 | 19.83882 | 1620 ft | 225 kts | 33° |
| 2026-05-06 19:26 | 50.14035 | 19.83981 | 1552 ft | 226 kts | 332° |
| 2026-05-06 19:26 | 50.14945 | 19.82149 | 1740 ft | 214 kts | 279° |
| 2026-05-06 19:26 | 50.14823 | 19.79960 | 1935 ft | 200 kts | 254° |
| 2026-05-06 19:26 | 50.14505 | 19.77847 | 1974 ft | 204 kts | 253° |
| 2026-05-06 19:27 | 50.14169 | 19.75656 | 1900 ft | 212 kts | 256° |
| 2026-05-06 19:27 | 50.13843 | 19.73358 | 1787 ft | 220 kts | 256° |
| 2026-05-06 19:27 | 50.13374 | 19.71166 | 1810 ft | 214 kts | 233° |
| 2026-05-06 19:27 | 50.12101 | 19.70019 | 1561 ft | 224 kts | 182° |
| 2026-05-06 19:28 | 50.10697 | 19.70938 | 1455 ft | 225 kts | 133° |
| 2026-05-06 19:28 | 50.10156 | 19.73154 | 1484 ft | 222 kts | 89° |
| 2026-05-06 19:28 | 50.10430 | 19.75438 | 1635 ft | 210 kts | 79° |
| 2026-05-06 19:28 | 50.10737 | 19.77642 | 1715 ft | 209 kts | 78° |
| 2026-05-06 19:29 | 50.11066 | 19.79846 | 1721 ft | 211 kts | 78° |
| 2026-05-06 19:29 | 50.11480 | 19.82051 | 1636 ft | 214 kts | 61° |
| 2026-05-06 19:29 | 50.12675 | 19.83433 | 1431 ft | 226 kts | 10° |
| 2026-05-06 19:29 | 50.14161 | 19.82952 | 1438 ft | 223 kts | 326° |
| 2026-05-06 19:30 | 50.15050 | 19.81071 | 1539 ft | 216 kts | 284° |
| 2026-05-06 19:30 | 50.15006 | 19.78802 | 1622 ft | 206 kts | 257° |
| 2026-05-06 19:30 | 50.14696 | 19.76629 | 1698 ft | 204 kts | 255° |
| 2026-05-06 19:30 | 50.14353 | 19.74479 | 1757 ft | 204 kts | 255° |
| 2026-05-06 19:31 | 50.14012 | 19.72302 | 1712 ft | 209 kts | 252° |
| 2026-05-06 19:31 | 50.13186 | 19.70489 | 1516 ft | 217 kts | 212° |
| 2026-05-06 19:31 | 50.10568 | 19.71603 | 1424 ft | 215 kts | 117° |
| 2026-05-06 19:32 | 50.10355 | 19.73812 | 1675 ft | 203 kts | 82° |
| 2026-05-06 19:32 | 50.10693 | 19.75916 | 1842 ft | 197 kts | 76° |
| 2026-05-06 19:32 | 50.11023 | 19.77985 | 1934 ft | 196 kts | 82° |
| 2026-05-06 19:32 | 50.11234 | 19.80085 | 1986 ft | 198 kts | 81° |
| 2026-05-06 19:33 | 50.11472 | 19.82210 | 2006 ft | 202 kts | 82° |
| 2026-05-06 19:33 | 50.11507 | 19.84322 | 2065 ft | 193 kts | 107° |
| 2026-05-06 19:33 | 50.10796 | 19.86073 | 1944 ft | 192 kts | 143° |
| 2026-05-06 19:33 | 50.09594 | 19.86768 | 1833 ft | 191 kts | 182° |
| 2026-05-06 19:34 | 50.08590 | 19.85647 | 1746 ft | 192 kts | 251° |
| 2026-05-06 19:34 | 50.08514 | 19.83699 | 1444 ft | 170 kts | 260° |
| 2026-05-06 19:34 | 50.08264 | 19.82024 | 1154 ft | 150 kts | 256° |
| 2026-05-06 19:34 | 50.08050 | 19.80517 | 894 ft | 135 kts | 257° |
| 2026-05-06 19:35 | 50.07867 | 19.79182 | 786 ft | 111 kts | 258° |
| 2026-05-06 19:35 | 50.07766 | 19.78424 | 787 ft | 38 kts | 258° |
| 2026-05-06 19:35 | 50.07696 | 19.78129 | 785 ft | 18 kts | 213° |
| 2026-05-06 19:35 | 50.07609 | 19.78108 | 785 ft | 0 kts | 181° |
| 2026-05-06 19:36 | 50.07605 | 19.78107 | 785 ft | 0 kts | 181° |
| 2026-05-06 19:36 | 50.07595 | 19.78107 | 785 ft | 9 kts | 181° |
| 2026-05-06 19:36 | 50.07592 | 19.78107 | 785 ft | 0 kts | 181° |
| 2026-05-06 19:36 | 50.07557 | 19.78106 | 785 ft | 15 kts | 181° |
| 2026-05-06 19:37 | 50.07500 | 19.78106 | 785 ft | 9 kts | 172° |
| 2026-05-06 19:37 | 50.07474 | 19.78171 | 786 ft | 7 kts | 73° |
| 2026-05-06 19:37 | 50.07486 | 19.78244 | 786 ft | 7 kts | 78° |
| 2026-05-06 19:37 | 50.07493 | 19.78297 | 786 ft | 8 kts | 78° |
| 2026-05-06 19:38 | 50.07515 | 19.78455 | 786 ft | 16 kts | 77° |
| 2026-05-06 19:38 | 50.07540 | 19.78633 | 786 ft | 16 kts | 78° |
| 2026-05-06 19:38 | 50.07562 | 19.78789 | 786 ft | 14 kts | 77° |
| 2026-05-06 19:38 | 50.07581 | 19.78926 | 786 ft | 12 kts | 78° |
| 2026-05-06 19:39 | 50.07599 | 19.79052 | 786 ft | 12 kts | 77° |
| 2026-05-06 19:39 | 50.07593 | 19.79149 | 786 ft | 6 kts | 146° |
| 2026-05-06 19:39 | 50.07535 | 19.79165 | 786 ft | 10 kts | 163° |
| 2026-05-06 19:39 | 50.07523 | 19.79216 | 786 ft | 5 kts | 79° |
| 2026-05-06 19:40 | 50.07532 | 19.79253 | 786 ft | 3 kts | 47° |
| 2026-05-06 19:40 | 50.07555 | 19.79258 | 786 ft | 4 kts | 354° |
| 2026-05-06 19:40 | 50.07575 | 19.79252 | 786 ft | 0 kts | 348° |